Time;durP1;ratioP1;P1;durP2;ratioP2;P2;SDS_P1;SDS_P2;PMS_P1;PMS_P2;Temp;Humidity;BMP_temperature;BMP_pressure;BME280_temperature;BME280_humidity;BME280_pressure;Samples;Min_cycle;Max_cycle;Signal;HPM_P1;HPM_P2
2022/07/14 00:01:36;;;;;;;2.30;1.00;;;;;;;21.49;46.20;99778.34;5051441;28;20250;-70
2022/07/14 00:04:03;;;;;;;1.10;0.90;;;;;;;21.46;46.02;99779.69;5051552;28;20200;-69
2022/07/14 00:06:31;;;;;;;0.73;0.70;;;;;;;21.37;46.35;99775.84;5051865;28;20632;-69
2022/07/14 00:08:58;;;;;;;1.07;1.00;;;;;;;21.24;46.94;99787.09;5052567;28;20228;-69
2022/07/14 00:11:25;;;;;;;1.83;1.00;;;;;;;21.17;47.21;99786.47;5052263;28;20251;-69
2022/07/14 00:13:52;;;;;;;3.00;0.97;;;;;;;21.21;46.90;99781.34;5052021;28;20250;-70
2022/07/14 00:16:19;;;;;;;0.83;0.83;;;;;;;21.18;47.36;99781.88;5051772;28;20197;-69
2022/07/14 00:18:46;;;;;;;2.03;0.80;;;;;;;20.95;48.16;99784.91;5051658;28;20296;-69
2022/07/14 00:21:14;;;;;;;0.90;0.90;;;;;;;20.81;48.53;99781.78;5051302;28;20665;-70
2022/07/14 00:23:42;;;;;;;1.10;1.00;;;;;;;21.04;47.96;99792.31;5051342;28;20188;-70
2022/07/14 00:26:10;;;;;;;1.13;0.90;;;;;;;21.19;47.35;99787.03;5051926;28;20192;-69
2022/07/14 00:28:36;;;;;;;1.73;0.93;;;;;;;21.38;46.73;99782.84;5051545;28;20226;-69
2022/07/14 00:31:06;;;;;;;2.50;1.10;;;;;;;21.37;47.03;99786.66;5051706;28;20192;-69
2022/07/14 00:33:34;;;;;;;1.00;1.00;;;;;;;21.33;47.51;99782.00;5051428;28;20630;-69
2022/07/14 00:36:01;;;;;;;1.10;1.00;;;;;;;21.28;47.34;99777.41;5052122;28;20192;-69
2022/07/14 00:38:28;;;;;;;1.07;0.97;;;;;;;21.39;46.89;99781.78;5051542;28;20223;-69
2022/07/14 00:40:56;;;;;;;1.10;1.00;;;;;;;21.40;47.13;99774.50;5054589;28;20200;-69
2022/07/14 00:43:22;;;;;;;1.17;0.73;;;;;;;21.31;47.15;99774.16;5055733;28;20588;-70
2022/07/14 00:45:50;;;;;;;3.30;0.70;;;;;;;21.33;47.15;99773.91;5055827;28;20197;-70
2022/07/14 00:48:19;;;;;;;0.80;0.80;;;;;;;21.34;47.13;99770.94;5054992;28;20189;-70
2022/07/14 00:50:46;;;;;;;1.70;1.10;;;;;;;21.29;47.45;99776.31;5054679;28;20193;-69
2022/07/14 00:53:14;;;;;;;2.67;1.07;;;;;;;21.36;47.57;99774.19;5054626;28;20250;-70
2022/07/14 00:55:43;;;;;;;1.50;0.87;;;;;;;21.35;47.83;99775.25;5054854;28;20193;-70
2022/07/14 00:58:11;;;;;;;1.10;1.00;;;;;;;21.32;47.97;99773.09;5054845;28;20197;-70
2022/07/14 01:00:39;;;;;;;2.63;0.90;;;;;;;21.15;48.87;99780.50;5054442;28;20189;-69
2022/07/14 01:03:06;;;;;;;0.83;0.83;;;;;;;21.17;48.60;99780.25;5054443;28;20196;-69
2022/07/14 01:05:33;;;;;;;1.17;0.90;;;;;;;20.96;49.06;99778.44;5054376;28;20188;-70
2022/07/14 01:08:00;;;;;;;1.43;0.87;;;;;;;21.08;49.02;99777.22;5054930;28;20193;-69
2022/07/14 01:10:27;;;;;;;1.53;1.10;;;;;;;21.15;48.88;99783.19;5055353;28;20571;-70
2022/07/14 01:12:56;;;;;;;2.53;1.40;;;;;;;20.99;48.92;99777.94;5054240;28;20867;-69
2022/07/14 01:15:25;;;;;;;0.83;0.83;;;;;;;20.89;48.71;99773.22;5055339;28;20334;-69
2022/07/14 01:17:52;;;;;;;1.90;0.90;;;;;;;20.87;48.84;99780.78;5054136;28;20246;-70
2022/07/14 01:20:20;;;;;;;1.20;1.10;;;;;;;20.89;48.74;99773.22;5054611;28;20193;-70
2022/07/14 01:22:48;;;;;;;2.37;1.10;;;;;;;20.96;48.05;99779.25;5054035;28;20196;-69
2022/07/14 01:25:16;;;;;;;1.43;1.10;;;;;;;21.02;48.10;99780.94;5055159;28;20254;-69
2022/07/14 01:27:43;;;;;;;1.33;1.10;;;;;;;21.10;47.72;99774.25;5054303;28;20201;-70
2022/07/14 01:30:11;;;;;;;2.33;1.20;;;;;;;21.08;47.51;99769.13;5054670;28;20580;-69
2022/07/14 01:32:38;;;;;;;2.40;0.97;;;;;;;20.93;47.94;99773.53;5054460;28;20254;-69
2022/07/14 01:35:06;;;;;;;1.03;1.03;;;;;;;20.99;47.60;99773.31;5054383;28;20821;-70
2022/07/14 01:37:32;;;;;;;1.20;0.93;;;;;;;21.04;47.37;99772.56;5053771;28;20193;-70
2022/07/14 01:40:01;;;;;;;2.03;1.00;;;;;;;21.21;47.06;99771.38;5054579;28;20250;-70
2022/07/14 01:42:28;;;;;;;2.43;0.90;;;;;;;21.22;46.92;99775.69;5053557;28;20228;-70
2022/07/14 01:44:54;;;;;;;1.23;1.13;;;;;;;21.21;47.04;99776.78;5054047;28;20196;-70
2022/07/14 01:47:21;;;;;;;2.33;1.20;;;;;;;21.34;46.68;99770.94;5053598;28;20683;-70
2022/07/14 01:49:48;;;;;;;1.77;1.00;;;;;;;21.31;46.60;99766.03;5053464;28;20292;-70
2022/07/14 01:52:15;;;;;;;1.13;1.13;;;;;;;21.24;46.92;99778.16;5052562;28;20877;-70
2022/07/14 01:54:41;;;;;;;1.03;1.00;;;;;;;21.24;46.75;99776.28;5054027;28;20204;-70
2022/07/14 01:57:09;;;;;;;2.73;1.03;;;;;;;21.30;46.87;99775.22;5053366;28;20189;-70
2022/07/14 01:59:36;;;;;;;1.73;1.10;;;;;;;21.41;46.33;99776.13;5054432;28;20197;-70
2022/07/14 02:02:03;;;;;;;1.00;0.90;;;;;;;21.47;46.36;99775.91;5053617;28;20251;-69
2022/07/14 02:04:30;;;;;;;4.13;1.63;;;;;;;21.51;46.37;99784.31;5054116;28;20196;-70
2022/07/14 02:06:57;;;;;;;1.20;1.20;;;;;;;21.39;46.76;99779.06;5053529;28;20196;-69
2022/07/14 02:12:10;;;;;;;3.67;1.10;;;;;;;21.39;46.60;99781.78;5053100;28;20699;-70
2022/07/14 02:12:11;;;;;;;4.53;1.43;;;;;;;21.42;46.50;99785.84;5053150;28;20185;-70
2022/07/14 02:14:38;;;;;;;7.27;1.30;;;;;;;21.36;46.71;99776.88;5053418;28;20196;-69
2022/07/14 02:17:05;;;;;;;1.30;1.20;;;;;;;21.31;46.94;99782.25;5053484;28;20621;-70
2022/07/14 02:19:31;;;;;;;1.20;1.10;;;;;;;21.33;47.00;99787.41;5053255;28;20200;-69
2022/07/14 02:21:59;;;;;;;2.63;0.97;;;;;;;21.16;47.31;99779.44;5053225;28;20631;-69
2022/07/14 02:24:25;;;;;;;3.60;1.20;;;;;;;21.15;47.24;99783.19;5053194;28;20196;-70
2022/07/14 02:26:52;;;;;;;2.17;1.13;;;;;;;21.05;47.50;99788.53;5052787;28;20193;-69
2022/07/14 02:29:21;;;;;;;2.30;1.20;;;;;;;21.06;47.46;99784.75;5053011;28;20228;-69
2022/07/14 02:31:48;;;;;;;1.10;1.10;;;;;;;21.22;46.77;99789.22;5053563;28;20243;-69
2022/07/14 02:34:16;;;;;;;1.40;1.30;;;;;;;21.13;47.36;99796.16;5052658;28;20197;-69
2022/07/14 02:36:43;;;;;;;1.50;1.13;;;;;;;21.08;47.14;99796.13;5053213;28;20630;-69
2022/07/14 02:39:11;;;;;;;1.30;1.20;;;;;;;21.15;47.34;99794.00;5052939;28;20216;-69
2022/07/14 02:41:37;;;;;;;2.50;1.63;;;;;;;21.19;47.31;99799.72;5052527;28;20260;-69
2022/07/14 02:44:04;;;;;;;2.40;1.37;;;;;;;21.30;47.52;99796.84;5052866;28;20250;-70
2022/07/14 02:46:33;;;;;;;1.53;1.43;;;;;;;21.37;47.05;99797.47;5052492;28;20197;-69
2022/07/14 02:48:59;;;;;;;2.70;1.40;;;;;;;21.30;47.20;99796.84;5052951;28;20277;-69
2022/07/14 02:51:26;;;;;;;1.73;1.63;;;;;;;21.36;47.13;99801.22;5052427;28;20196;-69
2022/07/14 02:53:53;;;;;;;1.30;1.30;;;;;;;21.32;47.03;99797.41;5052593;28;20196;-69
2022/07/14 02:56:20;;;;;;;2.00;1.00;;;;;;;21.22;47.28;99793.78;5052849;28;20274;-69
2022/07/14 02:58:47;;;;;;;2.80;1.27;;;;;;;21.15;47.29;99801.31;5052969;28;20279;-69
2022/07/14 03:01:13;;;;;;;1.50;1.37;;;;;;;21.08;47.41;99798.81;5052251;28;20203;-69
2022/07/14 03:03:42;;;;;;;2.13;1.30;;;;;;;21.19;47.30;99799.72;5052624;28;20267;-69
2022/07/14 03:06:10;;;;;;;1.27;1.17;;;;;;;21.20;47.61;99809.47;5052170;28;20677;-69
2022/07/14 03:08:37;;;;;;;1.33;1.23;;;;;;;21.26;47.55;99805.72;5052986;28;20254;-69
2022/07/14 03:11:05;;;;;;;0.97;0.97;;;;;;;21.20;47.75;99813.00;5052644;28;20220;-69
2022/07/14 03:13:31;;;;;;;2.70;1.10;;;;;;;21.24;47.46;99813.28;5052045;28;20189;-69
2022/07/14 03:15:59;;;;;;;1.40;1.30;;;;;;;21.23;47.61;99809.75;5052905;28;20192;-69
2022/07/14 03:18:26;;;;;;;2.93;1.20;;;;;;;21.22;46.94;99813.53;5052573;28;20266;-69
2022/07/14 03:20:54;;;;;;;3.17;1.40;;;;;;;21.11;47.37;99814.50;5051980;28;20196;-69
2022/07/14 03:23:21;;;;;;;2.50;1.23;;;;;;;21.08;47.34;99808.81;5051961;28;20193;-69
2022/07/14 03:25:49;;;;;;;3.30;1.20;;;;;;;21.13;47.74;99804.28;5051923;28;20672;-69
2022/07/14 03:28:16;;;;;;;3.83;1.60;;;;;;;21.15;47.62;99804.81;5052208;28;20200;-69
2022/07/14 03:30:43;;;;;;;4.90;1.40;;;;;;;21.23;47.36;99804.34;5051756;28;20277;-69
2022/07/14 03:33:10;;;;;;;3.00;1.70;;;;;;;21.25;47.59;99810.31;5052355;28;20192;-69
2022/07/14 03:35:38;;;;;;;2.43;1.40;;;;;;;21.22;47.99;99810.81;5051805;28;20764;-69
2022/07/14 03:38:07;;;;;;;2.80;1.70;;;;;;;21.19;47.90;99805.94;5052384;28;20192;-69
2022/07/14 03:40:34;;;;;;;3.23;1.40;;;;;;;21.26;47.65;99811.94;5052054;28;20269;-69
2022/07/14 03:43:02;;;;;;;2.33;1.67;;;;;;;21.34;47.63;99811.47;5053188;28;20228;-70
2022/07/14 03:45:28;;;;;;;4.10;1.90;;;;;;;21.38;47.58;99806.34;5051642;28;20728;-70
2022/07/14 03:47:56;;;;;;;7.70;1.90;;;;;;;21.32;47.83;99810.94;5051605;28;20676;-69
2022/07/14 03:50:22;;;;;;;4.13;1.50;;;;;;;21.46;47.42;99806.72;5051894;28;20290;-69
2022/07/14 03:52:49;;;;;;;2.00;1.30;;;;;;;21.50;47.74;99807.81;5051907;28;20189;-69
2022/07/14 03:55:18;;;;;;;1.83;1.30;;;;;;;21.68;47.24;99804.69;5051600;28;20193;-69
2022/07/14 03:57:44;;;;;;;2.20;1.60;;;;;;;21.91;46.86;99815.16;5051612;28;20689;-69
2022/07/14 04:00:12;;;;;;;3.67;1.67;;;;;;;22.21;46.08;99809.91;5051553;28;20200;-69
2022/07/14 04:02:39;;;;;;;4.40;1.83;;;;;;;22.31;45.76;99812.69;5052386;28;20258;-69
2022/07/14 04:05:06;;;;;;;3.80;1.57;;;;;;;22.25;45.99;99808.31;5051533;28;20232;-69
2022/07/14 04:07:33;;;;;;;3.00;1.90;;;;;;;22.25;46.13;99813.72;5051875;28;20197;-69
2022/07/14 04:09:59;;;;;;;4.53;1.83;;;;;;;22.50;45.66;99818.47;5051991;28;20628;-69
2022/07/14 04:12:27;;;;;;;2.50;1.50;;;;;;;22.98;44.60;99818.88;5051707;28;20193;-69
2022/07/14 04:14:54;;;;;;;7.63;2.00;;;;;;;24.16;42.15;99818.31;5053460;28;20663;-68
2022/07/14 04:17:21;;;;;;;7.33;2.17;;;;;;;25.33;40.17;99822.91;5055179;28;20256;-69
2022/07/14 04:19:48;;;;;;;10.77;1.60;;;;;;;26.58;36.96;99829.00;5056343;28;20257;-69
2022/07/14 04:22:14;;;;;;;3.53;1.27;;;;;;;27.41;35.04;99838.19;5055188;28;20193;-68
2022/07/14 04:24:42;;;;;;;2.90;1.20;;;;;;;28.39;32.78;99830.41;5055235;28;20193;-69
2022/07/14 04:27:09;;;;;;;2.40;1.03;;;;;;;29.01;31.98;99843.34;5055395;28;20376;-67
2022/07/14 04:29:38;;;;;;;2.23;1.23;;;;;;;29.66;30.95;99839.06;5054978;28;20224;-67
2022/07/14 04:32:05;;;;;;;11.23;1.60;;;;;;;30.61;29.36;99841.94;5055657;28;20201;-67
2022/07/14 04:34:32;;;;;;;7.70;1.70;;;;;;;31.06;29.00;99846.06;5055196;28;20250;-67
2022/07/14 04:36:59;;;;;;;9.90;2.00;;;;;;;31.68;28.00;99850.09;5055478;28;20250;-68
2022/07/14 04:39:25;;;;;;;4.60;1.70;;;;;;;32.03;28.16;99857.16;5054657;28;20657;-68
2022/07/14 04:41:52;;;;;;;10.00;2.10;;;;;;;32.59;27.11;99853.25;5055088;28;20224;-67
2022/07/14 04:44:19;;;;;;;5.70;1.40;;;;;;;33.16;26.31;99863.41;5055363;28;20270;-68
2022/07/14 04:46:47;;;;;;;3.77;1.50;;;;;;;34.05;24.79;99856.47;5054549;28;20254;-68
2022/07/14 04:52:03;;;;;;;13.00;1.83;;;;;;;34.23;24.06;99857.84;5054693;28;20180;-68
2022/07/14 04:54:31;;;;;;;20.73;2.40;;;;;;;34.67;23.79;99868.03;5055148;28;20193;-68
2022/07/14 04:56:57;;;;;;;1.15;1.10;;;;;;;34.87;23.56;99862.38;5054108;28;20721;-68
2022/07/14 04:59:24;;;;;;;7.22;1.25;;;;;;;34.91;23.01;99868.03;5054660;28;20193;-68
2022/07/14 05:01:52;;;;;;;3.90;1.40;;;;;;;35.21;22.96;99872.13;5054031;28;20617;-68
2022/07/14 05:04:19;;;;;;;11.27;1.90;;;;;;;35.25;22.77;99873.84;5054180;28;20726;-68
2022/07/14 05:06:49;;;;;;;5.97;1.30;;;;;;;35.42;22.80;99879.09;5054529;28;20197;-69
2022/07/14 05:09:17;;;;;;;3.38;1.13;;;;;;;35.37;22.57;99875.78;5054173;28;20200;-69
2022/07/14 05:11:44;;;;;;;2.65;1.33;;;;;;;35.05;23.08;99874.81;5054044;28;20224;-70
2022/07/14 05:14:10;;;;;;;5.40;1.17;;;;;;;35.04;23.06;99884.25;5053978;28;20189;-68
2022/07/14 05:16:38;;;;;;;4.35;0.98;;;;;;;35.17;22.92;99882.25;5054947;28;20204;-68
2022/07/14 05:19:06;;;;;;;1.17;1.00;;;;;;;35.41;22.91;99887.75;5053996;28;20192;-68
2022/07/14 05:21:33;;;;;;;2.50;1.25;;;;;;;35.29;22.55;99885.00;5054109;28;20196;-68
2022/07/14 05:24:00;;;;;;;7.68;1.42;;;;;;;35.29;23.01;99882.25;5054225;28;20287;-69
2022/07/14 05:26:27;;;;;;;7.55;1.15;;;;;;;35.22;22.89;99884.75;5054137;28;20279;-69
2022/07/14 05:28:54;;;;;;;2.53;1.30;;;;;;;34.25;23.26;99881.19;5054144;28;20192;-68
2022/07/14 05:31:21;;;;;;;2.00;0.90;;;;;;;34.40;23.35;99885.25;5054052;28;20645;-69
2022/07/14 05:33:48;;;;;;;3.50;1.10;;;;;;;34.36;22.99;99889.84;5051113;28;20204;-68
2022/07/14 05:36:17;;;;;;;7.65;1.70;;;;;;;34.65;22.94;99893.22;5053515;28;20250;-68
2022/07/14 05:38:43;;;;;;;4.30;1.13;;;;;;;34.66;23.27;99894.03;5053769;28;20287;-68
2022/07/14 05:41:10;;;;;;;2.92;1.20;;;;;;;34.54;22.70;99894.81;5053165;28;20201;-68
2022/07/14 05:43:37;;;;;;;10.63;1.58;;;;;;;34.11;22.67;99893.69;5054354;28;20185;-68
2022/07/14 05:46:06;;;;;;;3.03;1.17;;;;;;;33.56;23.19;99893.25;5053814;28;20197;-68
2022/07/14 05:48:33;;;;;;;1.20;1.00;;;;;;;33.48;23.26;99888.63;5053583;28;20218;-67
2022/07/14 05:51:07;;;;;;;2.53;1.00;;;;;;;33.72;23.73;99885.97;5053306;28;20699;-67
2022/07/14 05:53:36;;;;;;;4.63;1.23;;;;;;;33.82;23.88;99885.56;5053724;28;20249;-68
2022/07/14 05:56:04;;;;;;;4.30;1.30;;;;;;;33.99;23.79;99890.91;5054272;28;20235;-68
2022/07/14 05:58:31;;;;;;;1.63;1.13;;;;;;;34.37;23.27;99897.00;5053536;28;20218;-68
2022/07/14 06:00:58;;;;;;;1.33;0.90;;;;;;;33.95;23.25;99901.81;5053459;28;20262;-69
2022/07/14 06:03:25;;;;;;;6.53;1.20;;;;;;;33.55;23.31;99897.16;5052962;28;20189;-68
2022/07/14 06:05:52;;;;;;;8.80;1.20;;;;;;;33.19;23.96;99898.53;5053036;28;20201;-68
2022/07/14 06:08:19;;;;;;;6.17;1.10;;;;;;;33.34;24.02;99894.41;5053353;28;20196;-68
2022/07/14 06:10:48;;;;;;;1.43;0.73;;;;;;;33.46;23.36;99899.16;5053054;28;20766;-68
2022/07/14 06:13:14;;;;;;;2.10;0.80;;;;;;;33.56;23.60;99896.00;5052839;28;20196;-68
2022/07/14 06:15:41;;;;;;;4.17;1.20;;;;;;;33.54;23.85;99896.34;5053328;28;20201;-68
2022/07/14 06:18:10;;;;;;;3.60;1.30;;;;;;;33.25;23.70;99899.97;5053348;28;20274;-68
2022/07/14 06:20:37;;;;;;;4.40;1.40;;;;;;;33.59;24.05;99892.59;5052845;28;20232;-68
2022/07/14 06:23:03;;;;;;;8.67;1.77;;;;;;;33.82;23.93;99899.34;5053473;28;20197;-69
2022/07/14 06:25:30;;;;;;;4.38;1.20;;;;;;;33.58;23.92;99891.78;5053151;28;20258;-68
2022/07/14 06:27:58;;;;;;;4.82;1.00;;;;;;;33.71;23.76;99892.66;5052647;28;20201;-69
2022/07/14 06:30:25;;;;;;;3.60;1.27;;;;;;;33.69;23.56;99883.88;5052500;28;20274;-70
2022/07/14 06:32:52;;;;;;;6.13;1.30;;;;;;;33.99;23.86;99891.72;5052829;28;20246;-69
2022/07/14 06:35:19;;;;;;;3.03;1.23;;;;;;;34.37;23.42;99886.75;5052933;28;20200;-70
2022/07/14 06:37:45;;;;;;;8.77;1.10;;;;;;;33.74;23.67;99878.16;5053045;28;20196;-70
2022/07/14 06:40:13;;;;;;;1.55;0.90;;;;;;;33.91;23.43;99872.50;5052744;28;20254;-70
2022/07/14 06:42:39;;;;;;;1.33;0.85;;;;;;;33.71;23.82;99873.34;5052363;28;20712;-70
2022/07/14 06:45:09;;;;;;;1.98;0.95;;;;;;;33.65;23.63;99869.19;5052842;28;20189;-69
2022/07/14 06:47:36;;;;;;;7.13;1.40;;;;;;;33.68;23.67;99879.53;5052985;28;20271;-69
2022/07/14 06:50:02;;;;;;;4.13;1.20;;;;;;;33.98;23.64;99878.28;5052438;28;20254;-70
2022/07/14 06:52:29;;;;;;;3.83;1.40;;;;;;;34.33;23.17;99871.25;5052190;28;20200;-70
2022/07/14 06:54:58;;;;;;;1.30;1.15;;;;;;;34.36;23.33;99876.06;5052197;28;20656;-70
2022/07/14 06:57:25;;;;;;;1.95;1.10;;;;;;;34.30;23.21;99866.38;5052506;28;20192;-71
2022/07/14 06:59:52;;;;;;;3.80;1.10;;;;;;;34.06;23.57;99874.63;5052452;28;20195;-70
2022/07/14 07:02:20;;;;;;;5.18;1.38;;;;;;;34.14;23.21;99871.78;5052031;28;20201;-71
2022/07/14 07:06:43;;;;;;;2.70;0.80;;;;;;;34.28;23.16;99860.38;5051966;28;20196;-71
2022/07/14 07:07:33;;;;;;;5.95;0.98;;;;;;;34.48;23.22;99854.81;5052184;28;20196;-70
2022/07/14 07:10:00;;;;;;;4.40;0.90;;;;;;;34.11;23.13;99858.66;5052222;28;20196;-70
2022/07/14 07:12:28;;;;;;;7.47;1.05;;;;;;;33.83;23.52;99854.91;5052008;28;20192;-70
2022/07/14 07:14:55;;;;;;;6.47;1.08;;;;;;;33.73;23.73;99866.34;5052061;28;20220;-71
2022/07/14 07:17:23;;;;;;;1.30;0.90;;;;;;;33.53;24.28;99860.84;5052088;28;20258;-71
2022/07/14 07:19:50;;;;;;;8.63;1.58;;;;;;;33.55;23.54;99853.06;5051469;28;20254;-70
2022/07/14 07:22:16;;;;;;;7.78;1.83;;;;;;;33.65;24.34;99856.22;5051856;28;20818;-70
2022/07/14 07:24:43;;;;;;;0.85;0.85;;;;;;;33.44;24.22;99857.38;5051414;28;20199;-70
2022/07/14 07:27:10;;;;;;;10.75;1.30;;;;;;;33.86;23.68;99853.41;5051877;28;20188;-70
2022/07/14 07:29:37;;;;;;;2.63;0.88;;;;;;;34.28;23.30;99849.34;5051556;28;20616;-70
2022/07/14 07:32:04;;;;;;;2.95;0.98;;;;;;;34.15;23.25;99856.00;5051738;28;20769;-70
2022/07/14 07:34:32;;;;;;;11.57;1.90;;;;;;;34.39;23.07;99856.06;5051547;28;20195;-71
2022/07/14 07:36:59;;;;;;;4.07;1.00;;;;;;;34.34;23.07;99850.78;5051756;28;20197;-70
2022/07/14 07:39:25;;;;;;;6.47;0.98;;;;;;;34.62;23.06;99840.66;5051976;28;20215;-70
2022/07/14 07:41:55;;;;;;;6.75;1.23;;;;;;;34.97;23.10;99845.34;5051373;28;20286;-71
2022/07/14 07:44:22;;;;;;;7.18;1.10;;;;;;;35.17;22.57;99854.63;5051506;28;20200;-71
2022/07/14 07:46:48;;;;;;;2.25;1.00;;;;;;;35.02;22.39;99839.59;5051704;28;20283;-71
2022/07/14 07:49:15;;;;;;;3.22;1.42;;;;;;;35.28;22.87;99844.72;5053064;28;20192;-71
2022/07/14 07:51:43;;;;;;;6.43;1.50;;;;;;;35.59;22.26;99833.75;5056236;28;20225;-71
2022/07/14 07:54:10;;;;;;;2.90;0.95;;;;;;;35.15;22.13;99843.13;5055444;28;20196;-71
2022/07/14 07:56:37;;;;;;;1.20;1.10;;;;;;;34.93;22.46;99832.56;5055952;28;20189;-71
2022/07/14 07:59:04;;;;;;;155.98;10.27;;;;;;;34.37;22.46;99837.09;5055483;28;20711;-70
2022/07/14 08:01:31;;;;;;;7.88;1.40;;;;;;;34.47;22.22;99836.66;5055538;28;20737;-70
2022/07/14 08:03:57;;;;;;;1.92;0.90;;;;;;;34.36;22.67;99829.97;5055655;28;20189;-70
2022/07/14 08:06:24;;;;;;;4.57;1.10;;;;;;;34.65;23.13;99831.66;5056559;28;20189;-70
2022/07/14 08:08:52;;;;;;;2.03;1.00;;;;;;;34.89;22.20;99831.66;5055133;28;20197;-71
2022/07/14 08:11:19;;;;;;;2.38;1.20;;;;;;;35.04;21.98;99825.44;5055449;28;20232;-71
2022/07/14 08:13:46;;;;;;;4.38;1.23;;;;;;;35.20;21.94;99832.66;5055367;28;20193;-70
2022/07/14 08:16:12;;;;;;;1.88;0.80;;;;;;;34.77;21.80;99820.59;5055184;28;20625;-70
2022/07/14 08:18:39;;;;;;;3.45;0.85;;;;;;;34.73;21.13;99825.22;5055384;28;20250;-71
2022/07/14 08:21:06;;;;;;;2.70;1.50;;;;;;;34.43;22.29;99824.69;5055480;28;20258;-70
2022/07/14 08:23:33;;;;;;;5.55;1.20;;;;;;;34.19;22.34;99821.06;5055001;28;20733;-70
2022/07/14 08:26:01;;;;;;;2.65;0.98;;;;;;;34.39;22.68;99817.44;5055400;28;20269;-70
2022/07/14 08:28:28;;;;;;;6.75;2.63;;;;;;;34.79;22.74;99815.56;5055023;28;20597;-70
2022/07/14 08:30:54;;;;;;;4.15;1.83;;;;;;;34.74;22.43;99813.84;5055191;28;20220;-70
2022/07/14 08:33:21;;;;;;;2.40;1.20;;;;;;;34.87;21.78;99818.19;5055257;28;20261;-70
2022/07/14 08:35:48;;;;;;;6.80;1.20;;;;;;;34.79;21.90;99815.56;5054788;28;20255;-70
2022/07/14 08:38:15;;;;;;;1.00;0.85;;;;;;;34.52;21.81;99805.22;5054488;28;20560;-70
2022/07/14 08:40:42;;;;;;;1.88;1.10;;;;;;;34.44;21.88;99814.44;5054338;28;20188;-70
2022/07/14 08:43:13;;;;;;;11.77;2.25;;;;;;;34.85;21.75;99809.47;5053258;28;20229;-70
2022/07/14 08:45:42;;;;;;;1.85;1.10;;;;;;;34.43;21.73;99807.31;5053507;28;20350;-70
2022/07/14 08:48:09;;;;;;;2.15;0.90;;;;;;;34.85;21.52;99814.19;5053588;28;20258;-70
2022/07/14 08:50:37;;;;;;;2.13;1.10;;;;;;;35.16;20.98;99803.28;5053308;28;20196;-70
2022/07/14 08:53:04;;;;;;;14.40;1.73;;;;;;;34.77;21.13;99806.81;5053510;28;20661;-70
2022/07/14 08:55:32;;;;;;;3.40;1.17;;;;;;;34.82;20.96;99798.34;5053429;28;20188;-70
2022/07/14 08:57:59;;;;;;;2.72;1.02;;;;;;;35.30;20.27;99809.25;5053260;28;20196;-70
2022/07/14 09:00:27;;;;;;;0.85;0.85;;;;;;;35.58;19.48;99804.50;5052843;28;20200;-70
2022/07/14 09:02:55;;;;;;;1.60;0.88;;;;;;;35.80;19.62;99802.00;5052603;28;20258;-70
2022/07/14 09:05:22;;;;;;;2.50;0.85;;;;;;;35.96;19.79;99796.47;5052566;28;20196;-70
2022/07/14 09:07:56;;;;;;;1.33;0.75;;;;;;;36.02;19.60;99804.16;5052982;28;20200;-70
2022/07/14 09:10:25;;;;;;;1.27;0.90;;;;;;;35.94;20.05;99801.56;5052968;28;20619;-70
2022/07/14 09:12:51;;;;;;;8.25;0.93;;;;;;;36.10;19.26;99794.84;5052968;28;20217;-70
2022/07/14 09:18:12;;;;;;;5.20;1.55;;;;;;;36.22;19.18;99786.50;5053466;28;20196;-70
2022/07/14 09:20:40;;;;;;;3.03;0.80;;;;;;;36.27;19.61;99785.44;5053543;28;20254;-70
2022/07/14 09:23:07;;;;;;;1.60;0.90;;;;;;;36.17;19.64;99788.72;5052693;28;20247;-70
2022/07/14 09:25:35;;;;;;;6.22;1.23;;;;;;;36.17;19.65;99780.41;5052651;28;20664;-70
2022/07/14 09:28:03;;;;;;;1.45;0.90;;;;;;;36.30;19.90;99782.72;5052846;28;20228;-70
2022/07/14 09:30:31;;;;;;;0.70;0.70;;;;;;;36.04;18.75;99785.22;5052717;28;20189;-70
2022/07/14 09:32:59;;;;;;;2.63;0.98;;;;;;;36.15;18.70;99782.72;5052404;28;20232;-70
2022/07/14 09:35:38;;;;;;;3.00;0.80;;;;;;;36.22;18.29;99774.63;5052972;28;20263;-70
2022/07/14 09:38:17;;;;;;;1.20;0.60;;;;;;;36.45;18.46;99772.78;5052740;28;20246;-70
2022/07/14 09:40:44;;;;;;;3.90;1.00;;;;;;;36.56;18.89;99752.53;5052259;28;20184;-71
2022/07/14 09:43:13;;;;;;;2.38;1.10;;;;;;;36.15;18.41;99769.72;5011779;28;1185086;-72
2022/07/14 09:45:41;;;;;;;1.10;1.00;;;;;;;36.03;18.56;99767.03;5053307;28;20284;-71
2022/07/14 09:48:10;;;;;;;1.20;0.80;;;;;;;36.07;18.78;99762.41;5052343;28;20275;-71
2022/07/14 09:50:47;;;;;;;1.27;0.80;;;;;;;35.93;18.46;99761.25;5053742;28;20275;-71
2022/07/14 09:53:20;;;;;;;1.20;1.10;;;;;;;35.82;19.51;99760.16;5053254;28;20266;-71
2022/07/14 09:55:53;;;;;;;1.42;0.95;;;;;;;35.89;18.73;99760.34;5053013;28;20199;-72
2022/07/14 09:58:20;;;;;;;2.08;0.90;;;;;;;36.09;18.51;99754.53;5053282;28;20189;-72
2022/07/14 10:00:55;;;;;;;3.20;1.05;;;;;;;36.28;18.36;99764.88;5053208;28;20283;-73
2022/07/14 10:03:23;;;;;;;0.88;0.88;;;;;;;36.18;18.78;99746.03;5053209;28;20239;-71
2022/07/14 10:05:53;;;;;;;3.17;1.25;;;;;;;36.09;18.58;99742.66;5053400;28;20207;-72
2022/07/14 10:08:23;;;;;;;2.40;0.80;;;;;;;36.01;18.64;99744.44;5053794;28;20197;-73
2022/07/14 10:10:51;;;;;;;0.95;0.75;;;;;;;36.10;18.87;99744.28;5053047;28;20226;-70
2022/07/14 10:13:18;;;;;;;1.83;1.23;;;;;;;35.82;18.89;99732.50;5052239;28;20282;-70
2022/07/14 10:15:45;;;;;;;1.88;0.90;;;;;;;35.88;19.03;99731.09;5052824;28;20230;-73
2022/07/14 10:18:12;;;;;;;3.65;1.00;;;;;;;36.08;18.56;99725.25;5053139;28;20693;-70
2022/07/14 10:20:40;;;;;;;2.50;0.90;;;;;;;36.01;18.62;99732.59;5052983;28;20299;-70
2022/07/14 10:23:09;;;;;;;0.90;0.90;;;;;;;35.68;18.81;99729.38;5052766;28;20284;-71
2022/07/14 10:25:35;;;;;;;5.25;1.20;;;;;;;35.70;19.29;99727.84;5052673;28;20726;-71
2022/07/14 10:28:03;;;;;;;2.92;1.20;;;;;;;35.42;19.53;99726.28;5052960;28;20196;-70
2022/07/14 10:30:35;;;;;;;1.20;1.10;;;;;;;35.46;19.87;99724.41;5052885;28;20197;-71
2022/07/14 10:33:05;;;;;;;0.82;0.82;;;;;;;35.65;19.45;99727.28;5052475;28;20231;-70
2022/07/14 10:35:54;;;;;;;1.25;0.90;;;;;;;35.88;19.36;99725.56;5052717;28;20193;-71
2022/07/14 10:38:38;;;;;;;0.85;0.60;;;;;;;35.83;18.74;99723.03;5046296;28;20204;-71
2022/07/14 10:41:15;;;;;;;2.95;0.90;;;;;;;35.64;19.46;99714.66;5052282;28;20661;-71
2022/07/14 10:43:58;;;;;;;0.70;0.70;;;;;;;35.34;19.39;99713.44;5052972;28;20184;-71
2022/07/14 10:46:38;;;;;;;1.35;0.90;;;;;;;35.51;19.86;99713.09;5052245;28;20566;-72
2022/07/14 10:49:07;;;;;;;2.03;0.77;;;;;;;35.68;19.52;99715.53;5052225;28;20722;-71
2022/07/14 10:51:35;;;;;;;1.17;0.80;;;;;;;35.22;20.01;99691.38;5052063;28;20600;-71
2022/07/14 10:54:11;;;;;;;2.35;1.00;;;;;;;34.71;20.47;99704.13;5052096;28;20189;-72
2022/07/14 10:56:39;;;;;;;2.80;0.90;;;;;;;34.66;20.90;99707.09;5051970;28;20274;-71
2022/07/14 10:59:35;;;;;;;1.00;0.90;;;;;;;35.04;19.96;99695.59;5052232;28;20189;-72
2022/07/14 11:02:33;;;;;;;0.80;0.80;;;;;;;35.30;19.88;99698.72;5051688;28;20197;-69
2022/07/14 11:05:14;;;;;;;4.25;0.80;;;;;;;34.73;20.35;99695.47;5051907;28;20181;-70
2022/07/14 11:07:47;;;;;;;2.05;0.88;;;;;;;34.66;20.69;99687.78;5052005;28;20189;-70
2022/07/14 11:14:10;;;;;;;1.38;1.20;;;;;;;34.66;20.20;99673.97;5052512;28;20245;-71
2022/07/14 11:16:57;;;;;;;2.05;1.00;;;;;;;34.55;20.73;99672.88;5051811;28;20185;-72
2022/07/14 11:19:28;;;;;;;1.95;0.95;;;;;;;34.57;20.65;99670.56;5052976;28;20189;-71
2022/07/14 11:22:17;;;;;;;4.82;1.10;;;;;;;34.75;20.46;99676.59;5051826;28;20318;-71
2022/07/14 11:24:49;;;;;;;1.23;1.00;;;;;;;34.39;20.95;99674.78;5052035;28;20231;-71
2022/07/14 11:27:37;;;;;;;1.27;1.05;;;;;;;34.49;21.06;99663.22;5052411;28;20322;-72
2022/07/14 11:30:30;;;;;;;1.45;1.00;;;;;;;34.83;20.63;99672.94;5051902;28;20626;-71
2022/07/14 11:33:05;;;;;;;2.25;1.00;;;;;;;34.80;20.98;99681.91;5051313;28;20770;-71
2022/07/14 11:38:31;;;;;;;3.67;1.00;;;;;;;34.91;20.65;99666.44;5051937;28;20183;-71
2022/07/14 11:40:58;;;;;;;1.58;0.95;;;;;;;34.95;21.10;99670.13;5051514;28;20184;-71
2022/07/14 11:43:45;;;;;;;4.53;1.13;;;;;;;34.21;21.72;99667.84;5052619;28;20267;-71
2022/07/14 11:46:15;;;;;;;9.82;1.75;;;;;;;34.09;22.12;99670.63;5052651;28;20250;-71
2022/07/14 11:48:44;;;;;;;1.77;0.85;;;;;;;34.07;21.37;99656.41;5052288;28;20197;-71
2022/07/14 11:51:14;;;;;;;3.97;0.93;;;;;;;34.04;21.41;99659.06;5051401;28;20203;-70
2022/07/14 11:53:42;;;;;;;0.60;0.60;;;;;;;33.66;21.92;99644.78;5052000;28;20594;-70